createdAt,value
2017-08-04T00:01:39.729Z,21.23
2017-08-04T00:04:07.343Z,23.47
2017-08-04T00:06:34.956Z,22.60
2017-08-04T00:09:02.652Z,20.10
2017-08-04T00:11:30.285Z,17.83
2017-08-04T00:13:57.913Z,21.03
2017-08-04T00:16:26.305Z,22.07
2017-08-04T00:18:54.079Z,17.77
2017-08-04T00:21:21.731Z,16.07
2017-08-04T00:23:49.404Z,12.70
2017-08-04T00:26:17.073Z,18.47
2017-08-04T00:28:44.697Z,17.83
2017-08-04T00:31:12.367Z,18.53
2017-08-04T00:33:39.984Z,21.30
2017-08-04T00:36:07.620Z,22.63
2017-08-04T00:38:35.296Z,20.30
2017-08-04T00:41:03.686Z,24.80
2017-08-04T00:43:32.076Z,21.90
2017-08-04T00:46:00.707Z,17.80
2017-08-04T00:48:28.341Z,18.47
2017-08-04T00:50:56.000Z,16.83
2017-08-04T00:53:23.680Z,19.60
2017-08-04T00:55:51.292Z,17.27
2017-08-04T00:58:19.236Z,18.17
2017-08-04T01:00:46.946Z,18.83
2017-08-04T01:03:14.569Z,21.30
2017-08-04T01:05:42.193Z,17.93
2017-08-04T01:08:09.888Z,28.30
2017-08-04T01:10:37.534Z,15.13
2017-08-04T01:13:05.164Z,17.73
2017-08-04T01:15:32.853Z,17.03
2017-08-04T01:18:00.485Z,19.20
2017-08-04T01:20:28.109Z,21.13
2017-08-04T01:22:55.801Z,25.23
2017-08-04T01:25:23.427Z,18.37
2017-08-04T01:27:51.061Z,24.37
2017-08-04T01:30:18.780Z,22.47
2017-08-04T01:32:46.413Z,21.53
2017-08-04T01:35:14.077Z,21.57
2017-08-04T01:37:41.766Z,18.17
2017-08-04T01:40:09.403Z,15.33
2017-08-04T01:42:37.047Z,27.90
2017-08-04T01:45:05.005Z,26.27
2017-08-04T01:47:32.656Z,24.30
2017-08-04T01:50:00.327Z,20.23
2017-08-04T01:52:28.874Z,17.50
2017-08-04T01:54:57.284Z,19.40
2017-08-04T01:57:24.933Z,22.37
2017-08-04T01:59:52.628Z,21.60
2017-08-04T02:02:20.305Z,16.50
2017-08-04T02:04:47.942Z,28.17
2017-08-04T02:07:15.681Z,23.23
2017-08-04T02:09:43.329Z,23.70
2017-08-04T02:12:10.986Z,26.73
2017-08-04T02:14:38.696Z,23.30
2017-08-04T02:17:06.329Z,25.00
2017-08-04T02:19:33.962Z,33.50
2017-08-04T02:22:01.724Z,24.13
2017-08-04T02:24:29.377Z,29.97
2017-08-04T02:26:56.999Z,22.93
2017-08-04T02:29:24.778Z,24.90
2017-08-04T02:31:52.409Z,20.60
2017-08-04T02:34:20.045Z,29.50
2017-08-04T02:36:47.705Z,23.27
2017-08-04T02:39:15.885Z,34.63
2017-08-04T02:41:43.501Z,27.60
2017-08-04T02:44:11.193Z,32.47
2017-08-04T02:46:38.828Z,25.67
2017-08-04T02:49:06.542Z,36.40
2017-08-04T02:51:34.301Z,20.80
2017-08-04T02:54:01.932Z,33.67
2017-08-04T02:56:29.578Z,22.87
2017-08-04T02:58:57.395Z,29.93
2017-08-04T03:01:26.024Z,28.40
2017-08-04T03:03:54.699Z,24.17
2017-08-04T03:06:23.144Z,28.93
2017-08-04T03:08:50.781Z,20.90
2017-08-04T03:11:18.400Z,23.20
2017-08-04T03:13:46.583Z,23.53
2017-08-04T03:16:14.220Z,29.37
2017-08-04T03:18:41.849Z,29.33
2017-08-04T03:21:09.514Z,25.93
2017-08-04T03:23:37.141Z,25.67
2017-08-04T03:26:04.769Z,27.03
2017-08-04T03:28:33.017Z,27.80
2017-08-04T03:31:00.641Z,22.60
2017-08-04T03:33:28.270Z,25.00
2017-08-04T03:35:56.061Z,24.10
2017-08-04T03:38:23.685Z,26.67
2017-08-04T03:40:51.317Z,23.53
2017-08-04T03:43:18.997Z,30.47
2017-08-04T03:45:46.824Z,22.80
2017-08-04T03:48:14.461Z,25.90
2017-08-04T03:50:42.130Z,21.83
2017-08-04T03:53:09.760Z,28.93
2017-08-04T03:55:37.429Z,25.80
2017-08-04T03:58:05.122Z,21.73
2017-08-04T04:00:32.838Z,25.93
2017-08-04T04:03:01.147Z,21.20
2017-08-04T04:05:29.110Z,25.00
2017-08-04T04:07:57.817Z,32.20
2017-08-04T04:10:27.436Z,25.67
2017-08-04T04:12:56.306Z,29.80
2017-08-04T04:15:26.045Z,30.00
2017-08-04T04:17:55.000Z,29.40
2017-08-04T04:20:22.685Z,33.17
2017-08-04T04:22:50.315Z,23.80
2017-08-04T04:25:17.941Z,32.60
2017-08-04T04:27:45.608Z,32.40
2017-08-04T04:30:13.230Z,35.43
2017-08-04T04:32:40.845Z,27.50
2017-08-04T04:35:08.660Z,35.07
2017-08-04T04:37:36.291Z,26.93
2017-08-04T04:40:03.935Z,26.63
2017-08-04T04:42:31.744Z,30.30
2017-08-04T04:44:59.509Z,23.00
2017-08-04T04:47:27.128Z,21.67
2017-08-04T04:49:54.809Z,17.80
2017-08-04T04:52:22.489Z,19.30
2017-08-04T04:54:50.116Z,13.87
2017-08-04T04:57:18.017Z,17.23
2017-08-04T04:59:45.802Z,18.10
2017-08-04T05:02:13.421Z,11.33
2017-08-04T05:04:41.087Z,18.90
2017-08-04T05:07:08.717Z,14.47
2017-08-04T05:09:36.341Z,11.43
2017-08-04T05:12:04.302Z,14.53
2017-08-04T05:14:32.065Z,12.73
2017-08-04T05:16:59.736Z,12.13
2017-08-04T05:19:27.419Z,13.50
2017-08-04T05:21:55.069Z,11.37
2017-08-04T05:24:22.872Z,11.70
2017-08-04T05:26:50.552Z,15.23
2017-08-04T05:29:18.180Z,20.27
2017-08-04T05:31:46.206Z,9.33
2017-08-04T05:34:13.881Z,14.00
2017-08-04T05:36:41.656Z,16.07
2017-08-04T05:39:09.474Z,12.53
2017-08-04T05:41:37.168Z,10.10
2017-08-04T05:44:04.837Z,14.23
2017-08-04T05:46:32.459Z,9.93
2017-08-04T05:49:00.257Z,13.93
2017-08-04T05:51:27.888Z,16.40
2017-08-04T05:53:55.663Z,14.40
2017-08-04T05:56:23.345Z,21.80
2017-08-04T05:58:50.960Z,9.70
2017-08-04T06:01:19.357Z,9.30
2017-08-04T06:03:47.058Z,12.10
2017-08-04T06:06:14.687Z,16.53
2017-08-04T06:08:42.338Z,16.03
2017-08-04T06:11:10.028Z,14.73
2017-08-04T06:13:37.657Z,10.40
2017-08-04T06:16:05.804Z,14.83
2017-08-04T06:18:34.190Z,14.07
2017-08-04T06:21:02.005Z,16.60
2017-08-04T06:23:29.633Z,16.80
2017-08-04T06:25:57.353Z,19.30
2017-08-04T06:28:24.976Z,17.30
2017-08-04T06:30:52.612Z,17.20
2017-08-04T06:33:20.348Z,13.90
2017-08-04T06:35:48.022Z,22.33
2017-08-04T06:38:15.644Z,11.80
2017-08-04T06:40:43.334Z,16.60
2017-08-04T06:43:10.972Z,13.70
2017-08-04T06:45:38.849Z,11.40
2017-08-04T06:48:18.275Z,9.97
2017-08-04T06:50:57.608Z,11.13
2017-08-04T06:53:37.056Z,17.83
2017-08-04T06:56:06.448Z,12.23
2017-08-04T06:58:34.078Z,17.50
2017-08-04T07:01:01.753Z,21.03
2017-08-04T07:03:29.384Z,10.43
2017-08-04T07:05:57.003Z,14.93
2017-08-04T13:49:46.747Z,10.57
2017-08-04T13:52:14.419Z,11.20
2017-08-04T13:54:42.037Z,9.07
2017-08-04T13:57:09.677Z,14.87
2017-08-04T13:59:37.377Z,17.57
2017-08-04T14:02:05.001Z,8.43
2017-08-04T14:04:32.695Z,9.03
2017-08-04T14:07:01.151Z,9.30
2017-08-04T14:09:28.764Z,12.73
2017-08-04T14:11:56.374Z,11.17
2017-08-04T14:14:24.139Z,8.80
2017-08-04T14:16:51.943Z,9.87
2017-08-04T14:19:19.565Z,18.00
2017-08-04T14:21:47.233Z,10.00
2017-08-04T14:24:14.855Z,12.87
2017-08-04T14:26:42.789Z,10.77
2017-08-04T14:29:10.556Z,11.10
2017-08-04T14:31:38.399Z,10.10
2017-08-04T14:34:06.009Z,9.93
2017-08-04T14:36:33.634Z,15.70
2017-08-04T14:39:01.261Z,7.23
2017-08-04T14:41:28.875Z,12.63
2017-08-04T14:43:57.337Z,9.90
2017-08-04T14:46:24.957Z,7.87
2017-08-04T14:48:52.856Z,11.70
2017-08-04T14:51:20.520Z,7.70
2017-08-04T14:53:48.131Z,9.13
2017-08-04T14:56:16.053Z,8.10
2017-08-04T14:58:43.781Z,8.27
2017-08-04T15:01:12.061Z,13.93
2017-08-04T15:03:39.677Z,8.43
2017-08-04T15:06:07.333Z,9.30
2017-08-04T15:08:35.288Z,11.80
2017-08-04T15:11:02.954Z,9.87
2017-08-04T15:13:30.631Z,10.20
2017-08-04T15:15:58.239Z,6.93
2017-08-04T15:18:25.855Z,10.57
2017-08-04T15:20:53.559Z,7.57
2017-08-04T15:23:21.250Z,7.30
2017-08-04T15:25:48.855Z,7.83
2017-08-04T15:28:16.510Z,6.40
2017-08-04T15:30:44.125Z,8.23
2017-08-04T15:33:11.799Z,12.23
2017-08-04T15:35:39.681Z,11.23
2017-08-04T15:38:07.314Z,7.53
2017-08-04T15:40:34.924Z,7.90
2017-08-04T15:43:02.604Z,11.27
2017-08-04T15:45:30.241Z,6.43
2017-08-04T15:47:57.860Z,8.30
2017-08-04T15:50:25.661Z,6.93
2017-08-04T15:52:53.433Z,9.57
2017-08-04T15:55:21.048Z,7.60
2017-08-04T15:57:48.988Z,6.93
2017-08-04T16:00:17.367Z,5.63
2017-08-04T16:02:45.753Z,8.30
2017-08-04T16:05:14.205Z,9.43
2017-08-04T16:07:41.829Z,11.20
2017-08-04T16:10:09.441Z,8.97
2017-08-04T16:12:37.109Z,8.47
2017-08-04T16:15:04.939Z,6.67
2017-08-04T16:17:32.557Z,5.67
2017-08-04T16:20:00.993Z,7.50
2017-08-04T16:22:28.629Z,6.10
2017-08-04T16:24:56.255Z,12.27
2017-08-04T16:27:24.669Z,8.63
2017-08-04T16:29:52.281Z,7.33
2017-08-04T16:32:19.888Z,8.03
2017-08-04T16:34:47.564Z,7.40
2017-08-04T16:37:15.188Z,8.90
2017-08-04T16:39:42.808Z,7.77
2017-08-04T16:42:10.477Z,7.87
2017-08-04T16:44:38.097Z,11.80
2017-08-04T16:47:05.729Z,10.30
2017-08-04T16:49:33.401Z,9.13
2017-08-04T16:52:01.037Z,8.33
2017-08-04T16:54:28.659Z,8.03
2017-08-04T16:56:56.341Z,7.10
2017-08-04T16:59:23.963Z,10.07
2017-08-04T17:01:51.586Z,14.17
2017-08-04T17:04:19.266Z,4.90
2017-08-04T17:06:47.656Z,8.57
2017-08-04T17:09:16.038Z,9.33
2017-08-04T17:11:44.774Z,12.07
2017-08-04T17:14:12.397Z,4.77
2017-08-04T17:16:40.012Z,8.80
2017-08-04T17:19:07.674Z,5.63
2017-08-04T17:21:35.836Z,8.90
2017-08-04T17:24:04.136Z,10.73
2017-08-04T17:26:31.953Z,5.83
2017-08-04T17:28:59.567Z,5.87
2017-08-04T17:31:27.182Z,9.07
2017-08-04T17:33:54.862Z,7.17
2017-08-04T17:36:22.476Z,8.10
2017-08-04T17:38:50.098Z,7.53
2017-08-04T17:41:17.933Z,3.93
2017-08-04T17:43:45.615Z,9.73
2017-08-04T17:46:13.405Z,8.10
2017-08-04T17:48:41.065Z,5.90
2017-08-04T17:51:08.673Z,5.07
2017-08-04T17:53:36.293Z,3.73
2017-08-04T17:56:03.990Z,4.10
2017-08-04T17:58:35.649Z,5.33
2017-08-04T18:01:04.603Z,4.90
2017-08-04T18:03:32.252Z,8.30
2017-08-04T18:05:59.864Z,6.50
2017-08-04T18:08:28.313Z,6.50
2017-08-04T18:10:55.929Z,4.70
2017-08-04T18:13:23.556Z,5.97
2017-08-04T18:15:51.572Z,6.83
2017-08-04T18:18:19.197Z,3.70
2017-08-04T18:20:46.814Z,6.10
2017-08-04T18:23:14.500Z,4.97
2017-08-04T18:25:42.121Z,5.93
2017-08-04T18:28:09.743Z,8.93
2017-08-04T18:30:38.192Z,4.63
2017-08-04T18:33:05.803Z,4.33
2017-08-04T18:35:33.420Z,6.80
2017-08-04T18:38:01.184Z,8.43
2017-08-04T18:40:28.845Z,6.00
2017-08-04T18:42:56.638Z,4.63
2017-08-04T18:45:25.369Z,11.13
2017-08-04T18:47:52.989Z,8.00
2017-08-04T18:50:20.766Z,8.03
2017-08-04T18:52:48.430Z,5.03
2017-08-04T18:55:16.004Z,6.10
2017-08-04T18:57:43.620Z,10.30
2017-08-04T19:00:11.283Z,4.60
2017-08-04T19:02:38.902Z,6.50
2017-08-04T19:05:06.517Z,8.20
2017-08-04T19:07:34.787Z,7.43
2017-08-04T19:10:02.400Z,3.60
2017-08-04T19:12:30.012Z,3.63
2017-08-04T19:14:58.069Z,6.47
2017-08-04T19:17:25.702Z,11.60
2017-08-04T19:19:53.327Z,3.93
2017-08-04T19:22:20.989Z,11.93
2017-08-04T19:24:48.615Z,4.07
2017-08-04T19:27:16.260Z,11.80
2017-08-04T19:29:43.928Z,5.40
2017-08-04T19:32:11.549Z,4.10
2017-08-04T19:34:39.173Z,6.93
2017-08-04T19:37:06.865Z,3.43
2017-08-04T19:39:35.244Z,3.37
2017-08-04T19:42:03.626Z,3.70
2017-08-04T19:44:32.044Z,4.27
2017-08-04T19:46:59.673Z,4.00
2017-08-04T19:49:27.285Z,3.03
2017-08-04T19:51:54.960Z,6.80
2017-08-04T19:54:22.576Z,5.60
2017-08-04T19:56:50.259Z,3.70
2017-08-04T19:59:17.939Z,4.10
2017-08-04T20:01:45.570Z,3.10
2017-08-04T20:04:13.194Z,7.60
2017-08-04T20:06:40.851Z,3.57
2017-08-04T20:09:08.478Z,3.50
2017-08-04T20:11:36.105Z,4.50
2017-08-04T20:14:03.806Z,3.07
2017-08-04T20:16:31.422Z,7.30
2017-08-04T20:18:59.804Z,3.17
2017-08-04T20:21:28.365Z,2.77
2017-08-04T20:23:56.007Z,5.40
2017-08-04T20:26:23.617Z,3.33
2017-08-04T20:28:51.486Z,8.30
2017-08-04T20:31:19.869Z,3.80
2017-08-04T20:33:48.244Z,4.10
2017-08-04T20:36:16.766Z,3.87
2017-08-04T20:38:44.660Z,5.10
2017-08-04T20:41:12.280Z,5.03
2017-08-04T20:43:40.691Z,6.87
2017-08-04T20:46:08.308Z,9.30
2017-08-04T20:48:37.041Z,2.30
2017-08-04T20:51:04.728Z,2.70
2017-08-04T20:53:32.489Z,6.00
2017-08-04T20:56:00.111Z,5.07
2017-08-04T20:58:27.937Z,4.77
2017-08-04T21:00:57.329Z,4.23
2017-08-04T21:03:24.949Z,5.20
2017-08-04T21:05:52.632Z,4.40
2017-08-04T21:08:20.237Z,3.53
2017-08-04T21:10:48.069Z,7.93
2017-08-04T21:13:15.785Z,10.47
2017-08-04T21:15:43.405Z,4.80
2017-08-04T21:18:11.055Z,2.97
2017-08-04T21:20:38.732Z,3.07
2017-08-04T21:23:06.338Z,4.67
2017-08-04T21:25:33.953Z,5.40
2017-08-04T21:28:01.914Z,3.77
2017-08-04T21:30:29.541Z,4.67
2017-08-04T21:32:57.166Z,3.73
2017-08-04T21:35:24.829Z,2.00
2017-08-04T21:37:53.270Z,2.40
2017-08-04T21:40:20.873Z,9.90
2017-08-04T21:42:48.540Z,3.40
2017-08-04T21:45:16.476Z,2.60
2017-08-04T21:47:44.245Z,3.73
2017-08-04T21:50:11.904Z,3.60
2017-08-04T21:52:39.518Z,4.47
2017-08-04T21:55:07.133Z,5.40
2017-08-04T21:57:35.089Z,6.00
2017-08-04T22:00:02.713Z,4.03
2017-08-04T22:02:30.326Z,5.50
2017-08-04T22:04:58.721Z,4.73
2017-08-04T22:07:26.680Z,3.43
2017-08-04T22:09:54.529Z,6.00
2017-08-04T22:12:22.194Z,7.50
2017-08-04T22:14:49.855Z,3.53
2017-08-04T22:17:17.526Z,3.30
2017-08-04T22:19:45.202Z,3.37
2017-08-04T22:22:12.820Z,8.50
2017-08-04T22:24:40.437Z,6.97
2017-08-04T22:27:08.097Z,2.10
2017-08-04T22:29:36.039Z,3.43
2017-08-04T22:32:03.666Z,2.30
2017-08-04T22:34:31.322Z,5.70
2017-08-04T22:36:58.937Z,2.90
2017-08-04T22:39:26.560Z,4.07
2017-08-04T22:41:54.531Z,5.87
2017-08-04T22:44:22.288Z,2.90
2017-08-04T22:46:49.917Z,4.57
2017-08-04T22:49:17.764Z,2.80
2017-08-04T22:51:45.393Z,2.57
2017-08-04T22:54:13.601Z,4.20
2017-08-04T22:56:41.258Z,6.90
2017-08-04T22:59:08.873Z,3.17
2017-08-04T23:01:37.249Z,2.53
2017-08-04T23:04:05.685Z,1.80
2017-08-04T23:06:33.297Z,2.80
2017-08-04T23:09:01.122Z,2.87
2017-08-04T23:11:28.779Z,2.67
2017-08-04T23:13:56.397Z,5.03
2017-08-04T23:16:24.013Z,4.03
2017-08-04T23:18:51.680Z,2.53
2017-08-04T23:21:19.861Z,5.00
2017-08-04T23:23:47.481Z,4.70
2017-08-04T23:26:15.479Z,4.03
2017-08-04T23:28:43.092Z,2.43
2017-08-04T23:31:10.789Z,4.17
2017-08-04T23:33:38.555Z,3.40
2017-08-04T23:36:06.178Z,4.30
2017-08-04T23:38:33.792Z,2.70
2017-08-04T23:41:01.463Z,2.10
2017-08-04T23:43:29.086Z,2.13
2017-08-04T23:45:56.710Z,5.17
2017-08-04T23:48:25.152Z,3.50
2017-08-04T23:50:52.762Z,3.57
2017-08-04T23:53:20.373Z,2.50
2017-08-04T23:55:48.192Z,2.63
2017-08-04T23:58:16.135Z,4.93
